Tecumseh — WTW9257 — position and weather

sailwx.info

Track history (hours):
 
Tides and Currents Weather Stations Pressure Air Temp Water Temp Dewpoint Dewpoint Depression Visibility Wind Speed Wind Dir Waves Ship Positions

Tecumseh

Owner: SAUSE BROS INC, COOS BAY, OR. More information available from US FCC via Universal Licensing System and Coast Guard Vessel Documentation Center.

Last reported at 2016-Apr-21 16:33 UTC. Time now 2016-Apr-29 10:05 UTC.
Position N 45°40' W 124°57'.

Length 90 m; draft 4.8 m.

Type: Towing. MMSI: 367133160.

Date/timePositionNaut miles runAvg speedWind from/ knotsBaromVisibWave heightAir tempDewpointWater temp
2016-Apr-21 16:33N 45°40' W 124°57'8 8.3
2016-Apr-21 15:33N 45°45' W 124°48'8 8.0
2016-Apr-21 14:33N 45°51' W 124°41'8 8.0
2016-Apr-21 13:33N 45°57' W 124°33'8 8.2
2016-Apr-21 12:33N 46°03' W 124°25'8 7.9
2016-Apr-21 11:33N 46°08' W 124°17'8 7.7
2016-Apr-21 10:34N 46°13' W 124°08'7 7.4
2016-Apr-21 09:34N 46°13' W 123°57'7 7.2
2016-Apr-21 08:33N 46°13' W 123°47'7 6.9
2016-Apr-21 07:33N 46°16' W 123°38'7 7.3
2016-Apr-21 06:33N 46°16' W 123°27'8 8.2
2016-Apr-21 05:33N 46°09' W 123°21'1010.0
2016-Apr-21 04:33N 46°11' W 123°07'9 8.8
2016-Apr-21 03:33N 46°06' W 122°57'2 2.0
2016-Apr-21 02:33N 46°05' W 122°54'1413.6
2016-Apr-21 01:33N 45°52' W 122°47'1313.2
2016-Apr-21 00:33N 45°39' W 122°46'6 6.4
2016-Apr-20 23:33N 45°33' W 122°43'0 0.3
2016-Apr-20 22:29N 45°33' W 122°42'0 0.0
2016-Apr-20 21:32N 45°33' W 122°42'0 0.0
2016-Apr-20 20:32N 45°33' W 122°42'0 0.0
2016-Apr-20 19:29N 45°33' W 122°42'0 0.0
2016-Apr-20 18:31N 45°33' W 122°42'2 1.4
2016-Apr-20 17:28N 45°34' W 122°44'0 0.0
2016-Apr-20 16:22N 45°34' W 122°44'0 0.0
2016-Apr-20 15:28N 45°34' W 122°44'1 1.0
2016-Apr-20 14:34N 45°33' W 122°43'1 0.5
2016-Apr-20 13:13N 45°33' W 122°42'0 0.0
2016-Apr-20 11:25N 45°33' W 122°42'0 0.0
2016-Apr-20 09:13N 45°33' W 122°42'0 0.0
2016-Apr-20 08:19N 45°33' W 122°42'0 0.0
2016-Apr-20 06:25N 45°33' W 122°42'0 0.0
2016-Apr-20 05:31N 45°33' W 122°42'0 0.0
2016-Apr-20 03:25N 45°33' W 122°42'0 0.0
2016-Apr-20 02:19N 45°33' W 122°42'0 0.0
2016-Apr-20 01:25N 45°33' W 122°42'0 0.0
2016-Apr-19 22:13N 45°33' W 122°42'0 0.0
2016-Apr-19 21:33N 45°33' W 122°42'0 0.0
2016-Apr-19 20:33N 45°33' W 122°42'0 0.0
2016-Apr-19 19:33N 45°33' W 122°42'0 0.0
2016-Apr-19 18:33N 45°33' W 122°42'0 0.0
2016-Apr-19 17:32N 45°33' W 122°42'0 0.0
2016-Apr-19 16:33N 45°33' W 122°42'0 0.0
2016-Apr-19 15:33N 45°33' W 122°42'0 0.0
2016-Apr-19 14:33N 45°33' W 122°42'0 0.0
2016-Apr-19 13:33N 45°33' W 122°42'0 0.0
2016-Apr-19 12:33N 45°33' W 122°42'0 0.0
2016-Apr-19 11:33N 45°33' W 122°42'0 0.0
2016-Apr-19 10:33N 45°33' W 122°42'0 0.0
2016-Apr-19 09:33N 45°33' W 122°42'0 0.0
2016-Apr-19 08:33N 45°33' W 122°42'0 0.0
2016-Apr-19 07:33N 45°33' W 122°42'0 0.0
2016-Apr-19 06:33N 45°33' W 122°42'0 0.0
2016-Apr-19 05:33N 45°33' W 122°42'0 0.0
2016-Apr-19 04:33N 45°33' W 122°42'0 0.0
2016-Apr-19 03:33N 45°33' W 122°42'0 0.0
2016-Apr-19 02:33N 45°33' W 122°42'0 0.0
2016-Apr-19 01:33N 45°33' W 122°42'0 0.0
2016-Apr-19 00:33N 45°33' W 122°42'0 0.0
2016-Apr-18 23:33N 45°33' W 122°42'0 0.0
2016-Apr-18 22:33N 45°33' W 122°42'0 0.0
2016-Apr-18 21:33N 45°33' W 122°42'0 0.0
2016-Apr-18 20:33N 45°33' W 122°42'0 0.0
2016-Apr-18 19:32N 45°33' W 122°42'0 0.0
2016-Apr-18 18:33N 45°33' W 122°42'0 0.0
2016-Apr-18 17:33N 45°33' W 122°42'0 0.0
2016-Apr-18 16:33N 45°33' W 122°42'0 0.0
2016-Apr-18 15:33N 45°33' W 122°42'0 0.0
2016-Apr-18 14:33N 45°33' W 122°42'0 0.0
2016-Apr-18 13:33N 45°33' W 122°42'0 0.0
2016-Apr-18 12:33N 45°33' W 122°42'0 0.0
2016-Apr-18 11:33N 45°33' W 122°42'0 0.0
2016-Apr-18 10:33N 45°33' W 122°42'0 0.0
2016-Apr-18 09:33N 45°33' W 122°42'0 0.0
2016-Apr-18 08:33N 45°33' W 122°42'0 0.0
2016-Apr-18 07:33N 45°33' W 122°42'0 0.0
2016-Apr-18 06:33N 45°33' W 122°42'0 0.0
2016-Apr-18 05:33N 45°33' W 122°42'0 0.0
2016-Apr-18 04:33N 45°33' W 122°42'0 0.0
2016-Apr-18 03:33N 45°33' W 122°42'0 0.0
2016-Apr-18 02:33N 45°33' W 122°42'0 0.0
2016-Apr-18 01:33N 45°33' W 122°42'0 0.0
2016-Apr-18 00:33N 45°33' W 122°42'0 0.0
2016-Apr-17 23:33N 45°33' W 122°42'0 0.0
2016-Apr-17 22:33N 45°33' W 122°42'0 0.0
2016-Apr-17 21:33N 45°33' W 122°42'0 0.0
2016-Apr-17 20:33N 45°33' W 122°42'0 0.0
2016-Apr-17 19:34N 45°33' W 122°42'0 0.0
2016-Apr-17 18:33N 45°33' W 122°42'0 0.0
2016-Apr-17 17:33N 45°33' W 122°42'0 0.0
2016-Apr-17 16:33N 45°33' W 122°42'0 0.0
2016-Apr-17 15:33N 45°33' W 122°42'0 0.0
2016-Apr-17 14:33N 45°33' W 122°42'0 0.0
2016-Apr-17 13:33N 45°33' W 122°42'0 0.0
2016-Apr-17 12:33N 45°33' W 122°42'0 0.0
2016-Apr-17 11:33N 45°33' W 122°42'0 0.0
2016-Apr-17 10:33N 45°33' W 122°42'0 0.0
2016-Apr-17 09:33N 45°33' W 122°42'0 0.0
2016-Apr-17 08:33N 45°33' W 122°42'0 0.0
2016-Apr-17 07:33N 45°33' W 122°42'0 0.0
2016-Apr-17 06:33N 45°33' W 122°42'0 0.0
2016-Apr-17 05:33N 45°33' W 122°42'0 0.0
2016-Apr-17 04:33N 45°33' W 122°42'0 0.0
2016-Apr-17 03:33N 45°33' W 122°42'0 0.0
2016-Apr-17 02:33N 45°33' W 122°42'0 0.0
2016-Apr-17 01:33N 45°33' W 122°42'0 0.0
2016-Apr-17 00:33N 45°33' W 122°42'0 0.0
2016-Apr-16 23:33N 45°33' W 122°42'0 0.0
2016-Apr-16 22:33N 45°33' W 122°42'0 0.0
2016-Apr-16 21:33N 45°33' W 122°42'0 0.0
2016-Apr-16 20:33N 45°33' W 122°42'0 0.0
2016-Apr-16 19:33N 45°33' W 122°42'0 0.0
2016-Apr-16 18:33N 45°33' W 122°42'0 0.0
2016-Apr-16 17:33N 45°33' W 122°42'0 0.0
2016-Apr-16 16:33N 45°33' W 122°42'0 0.0
2016-Apr-16 15:33N 45°33' W 122°42'0 0.0
2016-Apr-16 14:33N 45°33' W 122°42'0 0.0
2016-Apr-16 13:33N 45°33' W 122°42'0 0.0
2016-Apr-16 12:33N 45°33' W 122°42'0 0.0
2016-Apr-16 11:33N 45°33' W 122°42'0 0.0
2016-Apr-16 10:33N 45°33' W 122°42'0 0.0
2016-Apr-16 09:33N 45°33' W 122°42'0 0.0
2016-Apr-16 08:33N 45°33' W 122°42'0 0.0
2016-Apr-16 07:33N 45°33' W 122°42'0 0.0
2016-Apr-16 06:31N 45°33' W 122°42'0 0.0
2016-Apr-16 05:33N 45°33' W 122°42'0 0.0
2016-Apr-16 04:33N 45°33' W 122°42'0 0.0
2016-Apr-16 03:33N 45°33' W 122°42'0 0.0
2016-Apr-16 02:33N 45°33' W 122°42'0 0.0
2016-Apr-16 01:33N 45°33' W 122°42'0 0.0
2016-Apr-16 00:33N 45°33' W 122°42'0 0.0
2016-Apr-15 23:33N 45°33' W 122°42'0 0.0
2016-Apr-15 22:33N 45°33' W 122°42'0 0.0
2016-Apr-15 21:33N 45°33' W 122°42'0 0.0
2016-Apr-15 20:33N 45°33' W 122°42'0 0.0
2016-Apr-15 19:33N 45°33' W 122°42'0 0.0
2016-Apr-15 18:33N 45°33' W 122°42'0 0.0
2016-Apr-15 17:33N 45°33' W 122°42'0 0.0
2016-Apr-15 16:33N 45°33' W 122°42'0 0.0
2016-Apr-15 15:33N 45°33' W 122°42'0 0.0
2016-Apr-15 14:33N 45°33' W 122°42'0 0.0
2016-Apr-15 13:33N 45°33' W 122°42'0 0.0
2016-Apr-15 12:30N 45°33' W 122°42'0 0.0
2016-Apr-15 11:34N 45°33' W 122°42'0 0.0
2016-Apr-15 10:33N 45°33' W 122°42'0 0.0
2016-Apr-15 09:33N 45°33' W 122°42'0 0.0
2016-Apr-15 08:33N 45°33' W 122°42'0 0.0
2016-Apr-15 07:33N 45°33' W 122°42'0 0.0
2016-Apr-15 06:33N 45°33' W 122°42'0 0.0
2016-Apr-15 05:33N 45°33' W 122°42'0 0.0
2016-Apr-15 04:33N 45°33' W 122°42'0 0.0
2016-Apr-15 03:33N 45°33' W 122°42'0 0.0
2016-Apr-15 02:33N 45°33' W 122°42'0 0.0
2016-Apr-15 01:33N 45°33' W 122°42'0 0.0
2016-Apr-15 00:33N 45°33' W 122°42'0 0.0
2016-Apr-14 23:33N 45°33' W 122°42'0 0.0
2016-Apr-14 22:33N 45°33' W 122°42'0 0.0
2016-Apr-14 21:33N 45°33' W 122°42'0 0.0
2016-Apr-14 20:33N 45°33' W 122°42'0 0.0
2016-Apr-14 19:33N 45°33' W 122°42'0 0.0
2016-Apr-14 18:33N 45°33' W 122°42'0 0.0
2016-Apr-14 17:34N 45°33' W 122°42'0 0.0
2016-Apr-14 16:33N 45°33' W 122°42'0 0.0
2016-Apr-14 15:33N 45°33' W 122°42'0 0.0
2016-Apr-14 14:33N 45°33' W 122°42'0 0.0
2016-Apr-14 13:33N 45°33' W 122°42'0 0.0
2016-Apr-14 12:33N 45°33' W 122°42'0 0.0
2016-Apr-14 11:33N 45°33' W 122°42'0 0.0
2016-Apr-14 10:33N 45°33' W 122°42'0 0.0
2016-Apr-14 09:33N 45°33' W 122°42'0 0.0
2016-Apr-14 08:33N 45°33' W 122°42'0 0.0
2016-Apr-14 07:33N 45°33' W 122°42'0 0.0
2016-Apr-14 06:33N 45°33' W 122°42'0 0.0
2016-Apr-14 05:33N 45°33' W 122°42'0 0.0
2016-Apr-14 04:33N 45°33' W 122°42'0 0.0
2016-Apr-14 03:33N 45°33' W 122°42'0 0.0
2016-Apr-14 02:33N 45°33' W 122°42'0 0.0
2016-Apr-14 01:33N 45°33' W 122°42'0 0.0
2016-Apr-14 00:33N 45°33' W 122°42'3 2.5
2016-Apr-13 23:33N 45°35' W 122°45'7 7.3
2016-Apr-13 22:33N 45°42' W 122°46'9 9.0
2016-Apr-13 21:33N 45°51' W 122°47'9 8.8
2016-Apr-13 20:33N 45°59' W 122°51'5 5.4
2016-Apr-13 19:33N 46°04' W 122°53'7 6.9
2016-Apr-13 18:33N 46°08' W 123°01'9 8.7
2016-Apr-13 17:33N 46°10' W 123°14'8 8.2
2016-Apr-13 16:33N 46°11' W 123°26'8 7.6
2016-Apr-13 15:34N 46°15' W 123°34'10 9.8
2016-Apr-13 14:33N 46°12' W 123°48'9 9.2
2016-Apr-13 13:34N 46°15' W 124°01'1110.5
2016-Apr-13 12:33N 46°12' W 124°15'9 9.2
2016-Apr-13 11:33N 46°19' W 124°24'9 9.1
2016-Apr-13 10:33N 46°26' W 124°32'1010.4
2016-Apr-13 09:33N 46°36' W 124°39'1211.5
2016-Apr-13 08:33N 46°47' W 124°45'1211.9
2016-Apr-13 07:33N 46°58' W 124°51'83 6.3
2016-Apr-12 18:32N 48°12' W 123°57'1313.2
2016-Apr-12 17:33N 48°12' W 123°37'9 9.1
2016-Apr-12 16:33N 48°08' W 123°25'1 0.9
2016-Apr-12 15:30N 48°08' W 123°26'0 0.0
2016-Apr-12 14:30N 48°08' W 123°26'0 0.0
2016-Apr-12 13:30N 48°08' W 123°26'0 0.0
2016-Apr-12 12:30N 48°08' W 123°26'0 0.0
2016-Apr-12 11:30N 48°08' W 123°26'0 0.0
2016-Apr-12 10:33N 48°08' W 123°26'0 0.0
2016-Apr-12 09:30N 48°08' W 123°26'0 0.0
2016-Apr-12 08:24N 48°08' W 123°26'0 0.0
2016-Apr-12 07:30N 48°08' W 123°26'0 0.0
2016-Apr-12 05:27N 48°08' W 123°26'0 0.0
2016-Apr-12 04:27N 48°08' W 123°26'0 0.0
2016-Apr-12 03:27N 48°08' W 123°26'0 0.0
2016-Apr-12 02:33N 48°08' W 123°26'0 0.0
2016-Apr-12 01:33N 48°08' W 123°26'0 0.0
2016-Apr-12 00:30N 48°08' W 123°26'0 0.0
2016-Apr-11 23:33N 48°08' W 123°26'0 0.0
2016-Apr-11 22:06N 48°08' W 123°26'0 0.0
2016-Apr-11 21:30N 48°08' W 123°26'0 0.0
2016-Apr-11 20:33N 48°08' W 123°26'0 0.0
2016-Apr-11 19:27N 48°08' W 123°26'0 0.0
2016-Apr-11 18:27N 48°08' W 123°26'0 0.0
2016-Apr-11 17:30N 48°08' W 123°26'  
Track history (hours):
 
Tides and Currents Weather Stations Pressure Air Temp Water Temp Dewpoint Dewpoint Depression Visibility Wind Speed Wind Dir Waves Ship Positions

Tecumseh

Owner: SAUSE BROS INC, COOS BAY, OR. More information available from US FCC via Universal Licensing System and Coast Guard Vessel Documentation Center.

Last reported at 2016-Apr-21 16:33 UTC. Time now 2016-Apr-29 10:05 UTC.
Position N 45°40' W 124°57'.

Length 90 m; draft 4.8 m.

Type: Towing. MMSI: 367133160.

Date/timePositionNaut miles runAvg speedWind from/ knotsBaromVisibWave heightAir tempDewpointWater temp
2016-Apr-21 16:33N 45°40' W 124°57'8 8.3
2016-Apr-21 15:33N 45°45' W 124°48'8 8.0
2016-Apr-21 14:33N 45°51' W 124°41'8 8.0
2016-Apr-21 13:33N 45°57' W 124°33'8 8.2
2016-Apr-21 12:33N 46°03' W 124°25'8 7.9
2016-Apr-21 11:33N 46°08' W 124°17'8 7.7
2016-Apr-21 10:34N 46°13' W 124°08'7 7.4
2016-Apr-21 09:34N 46°13' W 123°57'7 7.2
2016-Apr-21 08:33N 46°13' W 123°47'7 6.9
2016-Apr-21 07:33N 46°16' W 123°38'7 7.3
2016-Apr-21 06:33N 46°16' W 123°27'8 8.2
2016-Apr-21 05:33N 46°09' W 123°21'1010.0
2016-Apr-21 04:33N 46°11' W 123°07'9 8.8
2016-Apr-21 03:33N 46°06' W 122°57'2 2.0
2016-Apr-21 02:33N 46°05' W 122°54'1413.6
2016-Apr-21 01:33N 45°52' W 122°47'1313.2
2016-Apr-21 00:33N 45°39' W 122°46'6 6.4
2016-Apr-20 23:33N 45°33' W 122°43'0 0.3
2016-Apr-20 22:29N 45°33' W 122°42'0 0.0
2016-Apr-20 21:32N 45°33' W 122°42'0 0.0
2016-Apr-20 20:32N 45°33' W 122°42'0 0.0
2016-Apr-20 19:29N 45°33' W 122°42'0 0.0
2016-Apr-20 18:31N 45°33' W 122°42'2 1.4
2016-Apr-20 17:28N 45°34' W 122°44'0 0.0
2016-Apr-20 16:22N 45°34' W 122°44'0 0.0
2016-Apr-20 15:28N 45°34' W 122°44'1 1.0
2016-Apr-20 14:34N 45°33' W 122°43'1 0.5
2016-Apr-20 13:13N 45°33' W 122°42'0 0.0
2016-Apr-20 11:25N 45°33' W 122°42'0 0.0
2016-Apr-20 09:13N 45°33' W 122°42'0 0.0
2016-Apr-20 08:19N 45°33' W 122°42'0 0.0
2016-Apr-20 06:25N 45°33' W 122°42'0 0.0
2016-Apr-20 05:31N 45°33' W 122°42'0 0.0
2016-Apr-20 03:25N 45°33' W 122°42'0 0.0
2016-Apr-20 02:19N 45°33' W 122°42'0 0.0
2016-Apr-20 01:25N 45°33' W 122°42'0 0.0
2016-Apr-19 22:13N 45°33' W 122°42'0 0.0
2016-Apr-19 21:33N 45°33' W 122°42'0 0.0
2016-Apr-19 20:33N 45°33' W 122°42'0 0.0
2016-Apr-19 19:33N 45°33' W 122°42'0 0.0
2016-Apr-19 18:33N 45°33' W 122°42'0 0.0
2016-Apr-19 17:32N 45°33' W 122°42'0 0.0
2016-Apr-19 16:33N 45°33' W 122°42'0 0.0
2016-Apr-19 15:33N 45°33' W 122°42'0 0.0
2016-Apr-19 14:33N 45°33' W 122°42'0 0.0
2016-Apr-19 13:33N 45°33' W 122°42'0 0.0
2016-Apr-19 12:33N 45°33' W 122°42'0 0.0
2016-Apr-19 11:33N 45°33' W 122°42'0 0.0
2016-Apr-19 10:33N 45°33' W 122°42'0 0.0
2016-Apr-19 09:33N 45°33' W 122°42'0 0.0
2016-Apr-19 08:33N 45°33' W 122°42'0 0.0
2016-Apr-19 07:33N 45°33' W 122°42'0 0.0
2016-Apr-19 06:33N 45°33' W 122°42'0 0.0
2016-Apr-19 05:33N 45°33' W 122°42'0 0.0
2016-Apr-19 04:33N 45°33' W 122°42'0 0.0
2016-Apr-19 03:33N 45°33' W 122°42'0 0.0
2016-Apr-19 02:33N 45°33' W 122°42'0 0.0
2016-Apr-19 01:33N 45°33' W 122°42'0 0.0
2016-Apr-19 00:33N 45°33' W 122°42'0 0.0
2016-Apr-18 23:33N 45°33' W 122°42'0 0.0
2016-Apr-18 22:33N 45°33' W 122°42'0 0.0
2016-Apr-18 21:33N 45°33' W 122°42'0 0.0
2016-Apr-18 20:33N 45°33' W 122°42'0 0.0
2016-Apr-18 19:32N 45°33' W 122°42'0 0.0
2016-Apr-18 18:33N 45°33' W 122°42'0 0.0
2016-Apr-18 17:33N 45°33' W 122°42'0 0.0
2016-Apr-18 16:33N 45°33' W 122°42'0 0.0
2016-Apr-18 15:33N 45°33' W 122°42'0 0.0
2016-Apr-18 14:33N 45°33' W 122°42'0 0.0
2016-Apr-18 13:33N 45°33' W 122°42'0 0.0
2016-Apr-18 12:33N 45°33' W 122°42'0 0.0
2016-Apr-18 11:33N 45°33' W 122°42'0 0.0
2016-Apr-18 10:33N 45°33' W 122°42'0 0.0
2016-Apr-18 09:33N 45°33' W 122°42'0 0.0
2016-Apr-18 08:33N 45°33' W 122°42'0 0.0
2016-Apr-18 07:33N 45°33' W 122°42'0 0.0
2016-Apr-18 06:33N 45°33' W 122°42'0 0.0
2016-Apr-18 05:33N 45°33' W 122°42'0 0.0
2016-Apr-18 04:33N 45°33' W 122°42'0 0.0
2016-Apr-18 03:33N 45°33' W 122°42'0 0.0
2016-Apr-18 02:33N 45°33' W 122°42'0 0.0
2016-Apr-18 01:33N 45°33' W 122°42'0 0.0
2016-Apr-18 00:33N 45°33' W 122°42'0 0.0
2016-Apr-17 23:33N 45°33' W 122°42'0 0.0
2016-Apr-17 22:33N 45°33' W 122°42'0 0.0
2016-Apr-17 21:33N 45°33' W 122°42'0 0.0
2016-Apr-17 20:33N 45°33' W 122°42'0 0.0
2016-Apr-17 19:34N 45°33' W 122°42'0 0.0
2016-Apr-17 18:33N 45°33' W 122°42'0 0.0
2016-Apr-17 17:33N 45°33' W 122°42'0 0.0
2016-Apr-17 16:33N 45°33' W 122°42'0 0.0
2016-Apr-17 15:33N 45°33' W 122°42'0 0.0
2016-Apr-17 14:33N 45°33' W 122°42'0 0.0
2016-Apr-17 13:33N 45°33' W 122°42'0 0.0
2016-Apr-17 12:33N 45°33' W 122°42'0 0.0
2016-Apr-17 11:33N 45°33' W 122°42'0 0.0
2016-Apr-17 10:33N 45°33' W 122°42'0 0.0
2016-Apr-17 09:33N 45°33' W 122°42'0 0.0
2016-Apr-17 08:33N 45°33' W 122°42'0 0.0
2016-Apr-17 07:33N 45°33' W 122°42'0 0.0
2016-Apr-17 06:33N 45°33' W 122°42'0 0.0
2016-Apr-17 05:33N 45°33' W 122°42'0 0.0
2016-Apr-17 04:33N 45°33' W 122°42'0 0.0
2016-Apr-17 03:33N 45°33' W 122°42'0 0.0
2016-Apr-17 02:33N 45°33' W 122°42'0 0.0
2016-Apr-17 01:33N 45°33' W 122°42'0 0.0
2016-Apr-17 00:33N 45°33' W 122°42'0 0.0
2016-Apr-16 23:33N 45°33' W 122°42'0 0.0
2016-Apr-16 22:33N 45°33' W 122°42'0 0.0
2016-Apr-16 21:33N 45°33' W 122°42'0 0.0
2016-Apr-16 20:33N 45°33' W 122°42'0 0.0
2016-Apr-16 19:33N 45°33' W 122°42'0 0.0
2016-Apr-16 18:33N 45°33' W 122°42'0 0.0
2016-Apr-16 17:33N 45°33' W 122°42'0 0.0
2016-Apr-16 16:33N 45°33' W 122°42'0 0.0
2016-Apr-16 15:33N 45°33' W 122°42'0 0.0
2016-Apr-16 14:33N 45°33' W 122°42'0 0.0
2016-Apr-16 13:33N 45°33' W 122°42'0 0.0
2016-Apr-16 12:33N 45°33' W 122°42'0 0.0
2016-Apr-16 11:33N 45°33' W 122°42'0 0.0
2016-Apr-16 10:33N 45°33' W 122°42'0 0.0
2016-Apr-16 09:33N 45°33' W 122°42'0 0.0
2016-Apr-16 08:33N 45°33' W 122°42'0 0.0
2016-Apr-16 07:33N 45°33' W 122°42'0 0.0
2016-Apr-16 06:31N 45°33' W 122°42'0 0.0
2016-Apr-16 05:33N 45°33' W 122°42'0 0.0
2016-Apr-16 04:33N 45°33' W 122°42'0 0.0
2016-Apr-16 03:33N 45°33' W 122°42'0 0.0
2016-Apr-16 02:33N 45°33' W 122°42'0 0.0
2016-Apr-16 01:33N 45°33' W 122°42'0 0.0
2016-Apr-16 00:33N 45°33' W 122°42'0 0.0
2016-Apr-15 23:33N 45°33' W 122°42'0 0.0
2016-Apr-15 22:33N 45°33' W 122°42'0 0.0
2016-Apr-15 21:33N 45°33' W 122°42'0 0.0
2016-Apr-15 20:33N 45°33' W 122°42'0 0.0
2016-Apr-15 19:33N 45°33' W 122°42'0 0.0
2016-Apr-15 18:33N 45°33' W 122°42'0 0.0
2016-Apr-15 17:33N 45°33' W 122°42'0 0.0
2016-Apr-15 16:33N 45°33' W 122°42'0 0.0
2016-Apr-15 15:33N 45°33' W 122°42'0 0.0
2016-Apr-15 14:33N 45°33' W 122°42'0 0.0
2016-Apr-15 13:33N 45°33' W 122°42'0 0.0
2016-Apr-15 12:30N 45°33' W 122°42'0 0.0
2016-Apr-15 11:34N 45°33' W 122°42'0 0.0
2016-Apr-15 10:33N 45°33' W 122°42'0 0.0
2016-Apr-15 09:33N 45°33' W 122°42'0 0.0
2016-Apr-15 08:33N 45°33' W 122°42'0 0.0
2016-Apr-15 07:33N 45°33' W 122°42'0 0.0
2016-Apr-15 06:33N 45°33' W 122°42'0 0.0
2016-Apr-15 05:33N 45°33' W 122°42'0 0.0
2016-Apr-15 04:33N 45°33' W 122°42'0 0.0
2016-Apr-15 03:33N 45°33' W 122°42'0 0.0
2016-Apr-15 02:33N 45°33' W 122°42'0 0.0
2016-Apr-15 01:33N 45°33' W 122°42'0 0.0
2016-Apr-15 00:33N 45°33' W 122°42'0 0.0
2016-Apr-14 23:33N 45°33' W 122°42'0 0.0
2016-Apr-14 22:33N 45°33' W 122°42'0 0.0
2016-Apr-14 21:33N 45°33' W 122°42'0 0.0
2016-Apr-14 20:33N 45°33' W 122°42'0 0.0
2016-Apr-14 19:33N 45°33' W 122°42'0 0.0
2016-Apr-14 18:33N 45°33' W 122°42'0 0.0
2016-Apr-14 17:34N 45°33' W 122°42'0 0.0
2016-Apr-14 16:33N 45°33' W 122°42'0 0.0
2016-Apr-14 15:33N 45°33' W 122°42'0 0.0
2016-Apr-14 14:33N 45°33' W 122°42'0 0.0
2016-Apr-14 13:33N 45°33' W 122°42'0 0.0
2016-Apr-14 12:33N 45°33' W 122°42'0 0.0
2016-Apr-14 11:33N 45°33' W 122°42'0 0.0
2016-Apr-14 10:33N 45°33' W 122°42'0 0.0
2016-Apr-14 09:33N 45°33' W 122°42'0 0.0
2016-Apr-14 08:33N 45°33' W 122°42'0 0.0
2016-Apr-14 07:33N 45°33' W 122°42'0 0.0
2016-Apr-14 06:33N 45°33' W 122°42'0 0.0
2016-Apr-14 05:33N 45°33' W 122°42'0 0.0
2016-Apr-14 04:33N 45°33' W 122°42'0 0.0
2016-Apr-14 03:33N 45°33' W 122°42'0 0.0
2016-Apr-14 02:33N 45°33' W 122°42'0 0.0
2016-Apr-14 01:33N 45°33' W 122°42'0 0.0
2016-Apr-14 00:33N 45°33' W 122°42'3 2.5
2016-Apr-13 23:33N 45°35' W 122°45'7 7.3
2016-Apr-13 22:33N 45°42' W 122°46'9 9.0
2016-Apr-13 21:33N 45°51' W 122°47'9 8.8
2016-Apr-13 20:33N 45°59' W 122°51'5 5.4
2016-Apr-13 19:33N 46°04' W 122°53'7 6.9
2016-Apr-13 18:33N 46°08' W 123°01'9 8.7
2016-Apr-13 17:33N 46°10' W 123°14'8 8.2
2016-Apr-13 16:33N 46°11' W 123°26'8 7.6
2016-Apr-13 15:34N 46°15' W 123°34'10 9.8
2016-Apr-13 14:33N 46°12' W 123°48'9 9.2
2016-Apr-13 13:34N 46°15' W 124°01'1110.5
2016-Apr-13 12:33N 46°12' W 124°15'9 9.2
2016-Apr-13 11:33N 46°19' W 124°24'9 9.1
2016-Apr-13 10:33N 46°26' W 124°32'1010.4
2016-Apr-13 09:33N 46°36' W 124°39'1211.5
2016-Apr-13 08:33N 46°47' W 124°45'1211.9
2016-Apr-13 07:33N 46°58' W 124°51'83 6.3
2016-Apr-12 18:32N 48°12' W 123°57'1313.2
2016-Apr-12 17:33N 48°12' W 123°37'9 9.1
2016-Apr-12 16:33N 48°08' W 123°25'1 0.9
2016-Apr-12 15:30N 48°08' W 123°26'0 0.0
2016-Apr-12 14:30N 48°08' W 123°26'0 0.0
2016-Apr-12 13:30N 48°08' W 123°26'0 0.0
2016-Apr-12 12:30N 48°08' W 123°26'0 0.0
2016-Apr-12 11:30N 48°08' W 123°26'0 0.0
2016-Apr-12 10:33N 48°08' W 123°26'0 0.0
2016-Apr-12 09:30N 48°08' W 123°26'0 0.0
2016-Apr-12 08:24N 48°08' W 123°26'0 0.0
2016-Apr-12 07:30N 48°08' W 123°26'0 0.0
2016-Apr-12 05:27N 48°08' W 123°26'0 0.0
2016-Apr-12 04:27N 48°08' W 123°26'0 0.0
2016-Apr-12 03:27N 48°08' W 123°26'0 0.0
2016-Apr-12 02:33N 48°08' W 123°26'0 0.0
2016-Apr-12 01:33N 48°08' W 123°26'0 0.0
2016-Apr-12 00:30N 48°08' W 123°26'0 0.0
2016-Apr-11 23:33N 48°08' W 123°26'0 0.0
2016-Apr-11 22:06N 48°08' W 123°26'0 0.0
2016-Apr-11 21:30N 48°08' W 123°26'0 0.0
2016-Apr-11 20:33N 48°08' W 123°26'0 0.0
2016-Apr-11 19:27N 48°08' W 123°26'0 0.0
2016-Apr-11 18:27N 48°08' W 123°26'0 0.0
2016-Apr-11 17:30N 48°08' W 123°26'  

Dump ship's entire track history